createdAt,value
2023-04-11T00:00:38.229Z,100041.41
2023-04-11T00:03:07.067Z,100042.53
2023-04-11T00:05:35.637Z,100041.91
2023-04-11T00:08:03.878Z,100033.94
2023-04-11T00:10:32.050Z,100035.06
2023-04-11T00:13:00.435Z,100026.97
2023-04-11T00:15:32.523Z,100024.25
2023-04-11T00:18:00.929Z,100027.16
2023-04-11T00:20:29.274Z,100024.84
2023-04-11T00:22:58.289Z,100029.59
2023-04-11T00:25:27.033Z,100038.28
2023-04-11T00:27:55.313Z,100029.59
2023-04-11T00:30:23.745Z,100019.91
2023-04-11T00:32:53.298Z,100030.31
2023-04-11T00:35:27.526Z,100031.75
2023-04-11T00:37:56.169Z,100030.94
2023-04-11T00:40:24.651Z,100030.72
2023-04-11T00:42:53.086Z,100028.78
2023-04-11T00:45:21.254Z,100028.50
2023-04-11T00:47:50.313Z,100024.66
2023-04-11T00:50:22.233Z,100020.72
2023-04-11T00:52:51.005Z,100026.16
2023-04-11T00:55:19.422Z,100030.81
2023-04-11T00:57:47.605Z,100022.94
2023-04-11T01:00:16.177Z,100032.31
2023-04-11T01:02:45.182Z,100017.97
2023-04-11T01:05:15.102Z,100032.84
2023-04-11T01:07:52.412Z,100021.09
2023-04-11T01:10:20.861Z,100030.09
2023-04-11T01:12:49.600Z,100030.41
2023-04-11T01:15:17.907Z,100025.56
2023-04-11T01:17:47.907Z,100030.09
2023-04-11T01:20:16.251Z,100029.59
2023-04-11T01:22:44.864Z,100017.47
2023-04-11T01:25:15.657Z,100031.41
2023-04-11T01:27:44.866Z,100015.84
2023-04-11T01:30:13.492Z,100018.06
2023-04-11T01:32:41.886Z,100018.59
2023-04-11T01:35:12.094Z,100014.44
2023-04-11T01:37:40.500Z,100016.34
2023-04-11T01:40:10.152Z,100018.69
2023-04-11T01:42:40.082Z,100013.22
2023-04-11T01:45:09.078Z,100018.69
2023-04-11T01:47:37.497Z,100007.56
2023-04-11T01:50:06.897Z,100015.75
2023-04-11T01:52:35.228Z,100015.88
2023-04-11T01:55:03.562Z,100024.06
2023-04-11T01:57:31.919Z,100022.25
2023-04-11T02:00:01.677Z,100024.75
2023-04-11T02:02:30.283Z,100023.94
2023-04-11T02:04:58.669Z,100016.19
2023-04-11T02:07:27.364Z,100018.50
2023-04-11T02:09:55.772Z,100019.28
2023-04-11T02:12:23.981Z,100031.31
2023-04-11T02:14:52.252Z,100031.22
2023-04-11T02:17:25.878Z,100034.63
2023-04-11T02:19:54.656Z,100039.31
2023-04-11T02:22:23.029Z,100049.91
2023-04-11T02:24:52.077Z,100046.19
2023-04-11T02:27:20.400Z,100040.31
2023-04-11T02:30:06.212Z,100047.81
2023-04-11T02:32:37.647Z,100041.94
2023-04-11T02:35:07.658Z,100042.97
2023-04-11T02:37:38.279Z,100048.19
2023-04-11T02:40:09.781Z,100039.50
2023-04-11T02:42:39.902Z,100037.66
2023-04-11T02:45:08.743Z,100040.09
2023-04-11T02:47:38.348Z,100040.25
2023-04-11T02:50:07.486Z,100052.25
2023-04-11T02:52:37.718Z,100049.53
2023-04-11T02:55:06.294Z,100041.28
2023-04-11T02:57:34.480Z,100044.28
2023-04-11T03:00:10.500Z,100050.13
2023-04-11T03:02:41.553Z,100052.84
2023-04-11T03:05:18.744Z,100059.25
2023-04-11T03:07:47.081Z,100049.75
2023-04-11T03:10:15.431Z,100052.91
2023-04-11T03:12:43.639Z,100035.88
2023-04-11T03:15:15.238Z,100046.78
2023-04-11T03:17:44.958Z,100050.19
2023-04-11T03:20:13.544Z,100056.66
2023-04-11T03:22:41.721Z,100059.09
2023-04-11T03:25:10.624Z,100061.44
2023-04-11T03:27:38.968Z,100060.00
2023-04-11T03:30:07.898Z,100046.56
2023-04-11T03:32:36.090Z,100048.09
2023-04-11T03:35:06.064Z,100056.88
2023-04-11T03:37:34.192Z,100058.78
2023-04-11T03:40:03.761Z,100050.69
2023-04-11T03:42:32.057Z,100055.66
2023-04-11T03:45:00.265Z,100052.50
2023-04-11T03:47:28.429Z,100050.97
2023-04-11T03:49:56.613Z,100058.59
2023-04-11T03:52:26.149Z,100054.13
2023-04-11T03:54:54.514Z,100048.50
2023-04-11T03:57:22.656Z,100063.84
2023-04-11T03:59:51.032Z,100068.78
2023-04-11T04:02:19.344Z,100068.53
2023-04-11T04:04:48.615Z,100069.22
2023-04-11T04:07:22.221Z,100071.16
2023-04-11T04:09:52.054Z,100069.72
2023-04-11T04:12:20.451Z,100088.50
2023-04-11T04:14:48.678Z,100061.63
2023-04-11T04:17:17.012Z,100081.66
2023-04-11T04:19:45.360Z,100079.91
2023-04-11T04:22:13.683Z,100093.00
2023-04-11T04:24:45.998Z,100088.75
2023-04-11T04:27:18.071Z,100090.50
2023-04-11T04:29:59.895Z,100087.03
2023-04-11T04:32:32.730Z,100099.94
2023-04-11T04:35:01.675Z,100092.88
2023-04-11T04:37:29.944Z,100093.34
2023-04-11T04:40:02.000Z,100098.44
2023-04-11T04:42:31.702Z,100101.00
2023-04-11T04:45:00.482Z,100114.22
2023-04-11T04:47:31.224Z,100115.53
2023-04-11T04:49:59.694Z,100110.72
2023-04-11T04:52:28.853Z,100113.75
2023-04-11T04:54:58.095Z,100113.97
2023-04-11T04:57:27.133Z,100117.13
2023-04-11T04:59:56.907Z,100117.94
2023-04-11T05:02:26.805Z,100125.88
2023-04-11T05:04:55.359Z,100124.53
2023-04-11T05:07:23.778Z,100133.91
2023-04-11T05:09:51.933Z,100134.59
2023-04-11T05:12:21.631Z,100136.94
2023-04-11T05:14:49.987Z,100140.56
2023-04-11T05:17:19.721Z,100145.84
2023-04-11T05:19:48.052Z,100157.44
2023-04-11T05:22:16.419Z,100142.31
2023-04-11T05:24:44.645Z,100141.09
2023-04-11T05:27:13.318Z,100154.22
2023-04-11T05:29:41.621Z,100158.94
2023-04-11T05:32:09.910Z,100165.16
2023-04-11T05:34:51.762Z,100164.06
2023-04-11T05:37:20.386Z,100168.69
2023-04-11T05:39:48.622Z,100168.94
2023-04-11T05:42:18.527Z,100167.88
2023-04-11T05:44:46.734Z,100175.78
2023-04-11T05:47:14.942Z,100174.03
2023-04-11T05:49:44.596Z,100181.97
2023-04-11T05:52:12.775Z,100187.19
2023-04-11T05:54:41.001Z,100187.44
2023-04-11T05:57:09.195Z,100186.53
2023-04-11T05:59:37.700Z,100187.75
2023-04-11T06:02:06.631Z,100183.41
2023-04-11T06:04:35.472Z,100201.31
2023-04-11T06:07:05.452Z,100197.63
2023-04-11T06:09:34.318Z,100210.22
2023-04-11T06:12:03.722Z,100217.41
2023-04-11T06:14:32.132Z,100212.03
2023-04-11T06:17:00.746Z,100203.91
2023-04-11T06:19:28.964Z,100209.44
2023-04-11T06:21:57.288Z,100218.19
2023-04-11T06:24:37.223Z,100214.38
2023-04-11T06:27:05.811Z,100221.75
2023-04-11T06:29:34.000Z,100228.00
2023-04-11T06:32:02.306Z,100227.97
2023-04-11T06:34:30.745Z,100231.56
2023-04-11T06:36:58.931Z,100240.75
2023-04-11T06:39:27.292Z,100248.81
2023-04-11T06:41:56.805Z,100242.97
2023-04-11T06:44:25.128Z,100248.06
2023-04-11T06:46:53.668Z,100246.31
2023-04-11T06:49:21.947Z,100252.59
2023-04-11T06:51:50.514Z,100250.59
2023-04-11T06:54:19.262Z,100258.47
2023-04-11T06:56:47.784Z,100248.31
2023-04-11T06:59:19.366Z,100255.38
2023-04-11T07:01:47.828Z,100255.28
2023-04-11T07:04:16.586Z,100251.69
2023-04-11T07:06:44.861Z,100277.28
2023-04-11T07:09:13.418Z,100276.09
2023-04-11T07:11:41.677Z,100278.38
2023-04-11T07:14:10.005Z,100289.97
2023-04-11T07:16:39.655Z,100276.50
2023-04-11T07:19:07.999Z,100290.41
2023-04-11T07:21:38.207Z,100307.72
2023-04-11T07:24:06.635Z,100306.69
2023-04-11T07:26:38.534Z,100276.88
2023-04-11T07:29:08.800Z,100310.69
2023-04-11T07:31:40.732Z,100299.81
2023-04-11T07:34:08.928Z,100312.25
2023-04-11T07:36:37.074Z,100301.13
2023-04-11T07:39:08.996Z,100305.28
2023-04-11T07:41:37.533Z,100306.75
2023-04-11T07:44:07.544Z,100295.41
2023-04-11T07:46:35.765Z,100302.59
2023-04-11T07:49:05.576Z,100301.75
2023-04-11T07:51:33.802Z,100302.44
2023-04-11T07:54:02.071Z,100301.31
2023-04-11T07:56:30.593Z,100297.59
2023-04-11T07:58:58.897Z,100306.47
2023-04-11T08:01:27.223Z,100310.69
2023-04-11T08:03:56.317Z,100298.50
2023-04-11T08:06:26.467Z,100304.00
2023-04-11T08:08:54.803Z,100310.31
2023-04-11T08:11:22.940Z,100312.72
2023-04-11T08:13:51.765Z,100310.41
2023-04-11T08:16:20.104Z,100315.69
2023-04-11T08:18:48.391Z,100312.94
2023-04-11T08:21:17.243Z,100315.81
2023-04-11T08:23:47.482Z,100319.88
2023-04-11T08:26:17.254Z,100324.44
2023-04-11T08:28:45.701Z,100331.13
2023-04-11T08:31:14.206Z,100334.81
2023-04-11T08:33:42.420Z,100318.13
2023-04-11T08:36:11.309Z,100323.03
2023-04-11T08:38:40.183Z,100333.97
2023-04-11T08:41:09.731Z,100327.19
2023-04-11T08:43:38.872Z,100326.56
2023-04-11T08:46:08.813Z,100323.56
2023-04-11T08:48:37.112Z,100326.06
2023-04-11T08:51:05.989Z,100330.47
2023-04-11T08:53:36.800Z,100328.72
2023-04-11T08:56:06.340Z,100329.72
2023-04-11T08:58:36.045Z,100334.13
2023-04-11T09:01:19.146Z,100343.09
2023-04-11T09:03:51.249Z,100336.03
2023-04-11T09:06:19.510Z,100338.25
2023-04-11T09:08:47.926Z,100350.16
2023-04-11T09:11:16.073Z,100339.06
2023-04-11T09:13:45.690Z,100341.66
2023-04-11T09:16:14.590Z,100347.84
2023-04-11T09:18:44.355Z,100336.53
2023-04-11T09:21:29.420Z,100344.91
2023-04-11T09:24:14.412Z,100352.78
2023-04-11T09:26:45.864Z,100344.31
2023-04-11T09:29:21.788Z,100352.50
2023-04-11T09:31:50.203Z,100344.50
2023-04-11T09:34:24.359Z,100355.25
2023-04-11T09:36:55.032Z,100352.75
2023-04-11T09:39:28.410Z,100356.25
2023-04-11T09:41:56.767Z,100336.59
2023-04-11T09:44:37.546Z,100346.16
2023-04-11T09:47:06.340Z,100341.63
2023-04-11T09:49:36.033Z,100355.88
2023-04-11T09:52:04.804Z,100360.69
2023-04-11T09:54:33.278Z,100362.00
2023-04-11T09:57:01.570Z,100368.13
2023-04-11T09:59:31.208Z,100366.19
2023-04-11T10:02:01.613Z,100366.66
2023-04-11T10:04:47.606Z,100365.88
2023-04-11T10:07:17.013Z,100361.84
2023-04-11T10:09:46.143Z,100354.59
2023-04-11T10:12:14.368Z,100363.16
2023-04-11T10:15:09.756Z,100359.00
2023-04-11T10:17:40.585Z,100363.41
2023-04-11T10:20:23.846Z,100363.88
2023-04-11T10:23:01.848Z,100354.03
2023-04-11T10:25:30.556Z,100365.84
2023-04-11T10:28:01.014Z,100359.78
2023-04-11T10:30:44.773Z,100372.47
2023-04-11T10:33:15.987Z,100372.34
2023-04-11T10:35:57.859Z,100361.38
2023-04-11T10:38:47.107Z,100363.41
2023-04-11T10:41:15.764Z,100376.72
2023-04-11T10:43:44.377Z,100373.75
2023-04-11T10:46:19.673Z,100381.50
2023-04-11T10:48:59.005Z,100385.69
2023-04-11T10:51:27.987Z,100376.38
2023-04-11T10:53:59.409Z,100391.38
2023-04-11T10:56:58.650Z,100379.56
2023-04-11T10:59:45.790Z,100378.56
2023-04-11T11:02:14.752Z,100383.91
2023-04-11T11:04:44.380Z,100395.16
2023-04-11T11:07:15.515Z,100393.69
2023-04-11T11:09:48.493Z,100430.19
2023-04-11T11:12:17.461Z,100418.66
2023-04-11T11:14:46.557Z,100420.69
2023-04-11T11:17:15.581Z,100414.28
2023-04-11T11:19:46.129Z,100420.69
2023-04-11T11:22:17.832Z,100414.47
2023-04-11T11:24:46.113Z,100427.84
2023-04-11T11:27:19.594Z,100412.03
2023-04-11T11:29:47.826Z,100416.94
2023-04-11T11:32:22.001Z,100410.84
2023-04-11T11:34:52.937Z,100414.75
2023-04-11T11:37:21.591Z,100414.75
2023-04-11T11:39:50.758Z,100407.31
2023-04-11T11:42:19.156Z,100412.84
2023-04-11T11:44:47.328Z,100401.72
2023-04-11T11:47:15.942Z,100408.69
2023-04-11T11:49:45.220Z,100404.72
2023-04-11T11:52:30.805Z,100398.38
2023-04-11T11:55:00.872Z,100413.16
2023-04-11T11:57:29.096Z,100415.22
2023-04-11T11:59:57.880Z,100402.56
2023-04-11T12:02:27.377Z,100420.19
2023-04-11T12:05:20.561Z,100416.00
2023-04-11T12:07:54.810Z,100421.34
2023-04-11T12:10:23.176Z,100420.31
2023-04-11T12:12:53.936Z,100413.78
2023-04-11T12:15:39.778Z,100420.34
2023-04-11T12:18:07.966Z,100413.16
2023-04-11T12:20:36.533Z,100408.00
2023-04-11T12:23:06.280Z,100405.75
2023-04-11T12:25:34.464Z,100412.41
2023-04-11T12:28:05.097Z,100417.25
2023-04-11T12:30:33.667Z,100417.22
2023-04-11T12:33:02.041Z,100407.97
2023-04-11T12:35:30.809Z,100418.53
2023-04-11T12:37:58.982Z,100426.31
2023-04-11T12:40:29.676Z,100422.47
2023-04-11T12:42:58.359Z,100417.09
2023-04-11T12:45:46.585Z,100418.06
2023-04-11T12:48:15.027Z,100410.66
2023-04-11T12:50:43.381Z,100421.53
2023-04-11T12:53:12.081Z,100410.59
2023-04-11T12:55:41.721Z,100414.41
2023-04-11T12:58:10.089Z,100409.84
2023-04-11T13:00:38.450Z,100430.84
2023-04-11T13:03:07.184Z,100421.34
2023-04-11T13:05:36.980Z,100424.91
2023-04-11T13:08:05.196Z,100420.63
2023-04-11T13:10:33.614Z,100422.44
2023-04-11T13:13:17.050Z,100414.13
2023-04-11T13:15:47.265Z,100414.47
2023-04-11T13:18:15.571Z,100425.06
2023-04-11T13:20:44.082Z,100430.28
2023-04-11T13:23:13.687Z,100429.88
2023-04-11T13:25:43.388Z,100427.59
2023-04-11T13:28:12.975Z,100429.94
2023-04-11T13:30:41.938Z,100425.81
2023-04-11T13:33:10.268Z,100427.56
2023-04-11T13:35:38.452Z,100421.56
2023-04-11T13:38:06.734Z,100425.16
2023-04-11T13:40:35.852Z,100414.13
2023-04-11T13:43:04.082Z,100426.38
2023-04-11T13:45:33.902Z,100423.97
2023-04-11T13:48:03.342Z,100437.41
2023-04-11T13:50:31.843Z,100415.91
2023-04-11T13:53:00.274Z,100418.69
2023-04-11T13:55:28.459Z,100425.56
2023-04-11T13:57:56.757Z,100429.81
2023-04-11T14:00:25.122Z,100435.34
2023-04-11T14:02:54.751Z,100421.88
2023-04-11T14:05:25.025Z,100435.41
2023-04-11T14:07:53.220Z,100435.78
2023-04-11T14:10:21.839Z,100418.53
2023-04-11T14:12:51.230Z,100421.78
2023-04-11T14:15:20.509Z,100422.81
2023-04-11T14:17:50.038Z,100414.97
2023-04-11T14:20:19.849Z,100421.00
2023-04-11T14:22:48.034Z,100403.72
2023-04-11T14:25:16.602Z,100416.84
2023-04-11T14:27:45.663Z,100417.53
2023-04-11T14:30:14.116Z,100418.47
2023-04-11T14:32:42.581Z,100423.06
2023-04-11T14:35:11.044Z,100415.56
2023-04-11T14:37:40.986Z,100405.66
2023-04-11T14:40:11.079Z,100402.25
2023-04-11T14:42:39.607Z,100406.97
2023-04-11T14:45:09.592Z,100408.50
2023-04-11T14:47:39.663Z,100403.44
2023-04-11T14:50:13.700Z,100403.06
2023-04-11T14:52:58.101Z,100401.78
2023-04-11T14:55:26.325Z,100394.59
2023-04-11T14:57:57.640Z,100395.56
2023-04-11T15:00:27.561Z,100394.19
2023-04-11T15:02:57.422Z,100394.75
2023-04-11T15:05:26.592Z,100389.88
2023-04-11T15:07:54.741Z,100385.19
2023-04-11T15:10:25.929Z,100375.66
2023-04-11T15:12:54.203Z,100389.09
2023-04-11T15:15:24.819Z,100387.84
2023-04-11T15:18:08.186Z,100385.13
2023-04-11T15:20:36.499Z,100361.59
2023-04-11T15:23:07.520Z,100388.56
2023-04-11T15:25:38.407Z,100390.69
2023-04-11T15:28:06.696Z,100389.63
2023-04-11T15:30:36.050Z,100382.25
2023-04-11T15:33:05.234Z,100390.59
2023-04-11T15:35:33.829Z,100384.66
2023-04-11T15:38:02.027Z,100390.59
2023-04-11T15:40:30.477Z,100392.66
2023-04-11T15:43:01.235Z,100382.00
2023-04-11T15:45:29.398Z,100378.88
2023-04-11T15:47:58.972Z,100374.78
2023-04-11T15:50:48.549Z,100369.88
2023-04-11T15:53:17.223Z,100372.69
2023-04-11T15:55:47.122Z,100371.28
2023-04-11T15:58:18.917Z,100368.63
2023-04-11T16:00:47.090Z,100367.31
2023-04-11T16:03:18.982Z,100362.47
2023-04-11T16:05:56.820Z,100360.56
2023-04-11T16:08:26.081Z,100366.09
2023-04-11T16:10:54.496Z,100355.06
2023-04-11T16:13:24.081Z,100366.41
2023-04-11T16:15:52.192Z,100347.16
2023-04-11T16:18:20.587Z,100349.59
2023-04-11T16:20:48.900Z,100353.13
2023-04-11T16:23:17.144Z,100345.69
2023-04-11T16:25:45.659Z,100349.13
2023-04-11T16:28:15.303Z,100349.13
2023-04-11T16:30:45.033Z,100341.03
2023-04-11T16:33:13.701Z,100347.31
2023-04-11T16:35:44.955Z,100340.06
2023-04-11T16:38:13.187Z,100338.94
2023-04-11T16:40:41.490Z,100336.88
2023-04-11T16:43:29.596Z,100335.75
2023-04-11T16:45:59.613Z,100337.69
2023-04-11T16:48:27.937Z,100334.00
2023-04-11T16:50:56.136Z,100333.63
2023-04-11T16:53:24.358Z,100337.84
2023-04-11T16:55:53.570Z,100338.59
2023-04-11T16:58:24.665Z,100329.19
2023-04-11T17:00:53.683Z,100334.00
2023-04-11T17:03:23.386Z,100331.44
2023-04-11T17:05:51.679Z,100334.69
2023-04-11T17:08:19.878Z,100346.84
2023-04-11T17:10:48.129Z,100338.66
2023-04-11T17:13:18.607Z,100337.53
2023-04-11T17:15:47.018Z,100323.16
2023-04-11T17:18:15.421Z,100335.44
2023-04-11T17:20:46.539Z,100329.78
2023-04-11T17:23:14.736Z,100336.75
2023-04-11T17:25:42.952Z,100341.09
2023-04-11T17:28:11.509Z,100338.81
2023-04-11T17:30:39.736Z,100330.41
2023-04-11T17:33:08.626Z,100337.03
2023-04-11T17:35:36.962Z,100332.78
2023-04-11T17:38:06.685Z,100334.22
2023-04-11T17:40:35.000Z,100322.84
2023-04-11T17:43:03.444Z,100316.84
2023-04-11T17:45:31.929Z,100311.44
2023-04-11T17:48:01.143Z,100319.78
2023-04-11T17:50:29.908Z,100308.25
2023-04-11T17:52:58.507Z,100315.91
2023-04-11T17:55:28.203Z,100313.91
2023-04-11T17:57:56.571Z,100313.41
2023-04-11T18:00:26.423Z,100311.31
2023-04-11T18:02:57.545Z,100321.47
2023-04-11T18:05:27.193Z,100324.28
2023-04-11T18:07:56.483Z,100323.78
2023-04-11T18:10:25.853Z,100314.94
2023-04-11T18:12:57.348Z,100320.41
2023-04-11T18:15:26.507Z,100314.78
2023-04-11T18:17:55.059Z,100316.47
2023-04-11T18:20:23.370Z,100315.03
2023-04-11T18:22:54.349Z,100314.25
2023-04-11T18:25:23.295Z,100315.88
2023-04-11T18:27:51.581Z,100308.63
2023-04-11T18:30:21.178Z,100309.84
2023-04-11T18:32:51.529Z,100310.16
2023-04-11T18:35:19.938Z,100312.47
2023-04-11T18:37:48.096Z,100313.50
2023-04-11T18:40:17.446Z,100313.25
2023-04-11T18:42:49.172Z,100312.97
2023-04-11T18:45:20.566Z,100315.09
2023-04-11T18:47:51.077Z,100317.41
2023-04-11T18:50:19.893Z,100310.41
2023-04-11T18:52:52.678Z,100314.81
2023-04-11T18:55:23.559Z,100315.81
2023-04-11T18:57:55.353Z,100317.75
2023-04-11T19:00:26.024Z,100320.38
2023-04-11T19:02:56.321Z,100323.81
2023-04-11T19:05:25.856Z,100320.72
2023-04-11T19:07:54.460Z,100319.78
2023-04-11T19:10:24.077Z,100315.44
2023-04-11T19:12:52.652Z,100314.31
2023-04-11T19:15:21.268Z,100305.41
2023-04-11T19:17:49.596Z,100306.63
2023-04-11T19:20:20.379Z,100298.72
2023-04-11T19:22:48.685Z,100302.44
2023-04-11T19:25:16.996Z,100304.59
2023-04-11T19:27:46.231Z,100301.81
2023-04-11T19:30:14.537Z,100303.25
2023-04-11T19:32:45.688Z,100298.59
2023-04-11T19:35:14.114Z,100297.13
2023-04-11T19:37:43.715Z,100283.09
2023-04-11T19:40:13.339Z,100288.34
2023-04-11T19:42:41.809Z,100288.56
2023-04-11T19:45:10.906Z,100280.88
2023-04-11T19:47:40.417Z,100277.03
2023-04-11T19:50:11.690Z,100284.50
2023-04-11T19:52:40.351Z,100268.91
2023-04-11T19:55:10.548Z,100265.69
2023-04-11T19:57:40.360Z,100266.69
2023-04-11T20:00:11.885Z,100263.81
2023-04-11T20:02:44.364Z,100266.84
2023-04-11T20:05:13.569Z,100254.94
2023-04-11T20:07:42.531Z,100255.72
2023-04-11T20:10:13.652Z,100252.38
2023-04-11T20:12:42.132Z,100249.25
2023-04-11T20:15:10.968Z,100242.81
2023-04-11T20:17:39.375Z,100240.75
2023-04-11T20:20:08.684Z,100238.72
2023-04-11T20:22:38.547Z,100234.47
2023-04-11T20:25:07.670Z,100228.00
2023-04-11T20:27:37.298Z,100223.84
2023-04-11T20:30:10.677Z,100221.72
2023-04-11T20:32:39.383Z,100218.75
2023-04-11T20:35:08.485Z,100206.09
2023-04-11T20:37:36.978Z,100199.91
2023-04-11T20:40:07.572Z,100200.22
2023-04-11T20:42:41.227Z,100189.59
2023-04-11T20:45:10.636Z,100189.22
2023-04-11T20:47:39.030Z,100185.28
2023-04-11T20:50:09.608Z,100176.19
2023-04-11T20:52:38.504Z,100186.28
2023-04-11T20:55:07.057Z,100186.28
2023-04-11T20:57:35.897Z,100182.03
2023-04-11T21:00:12.082Z,100179.41
2023-04-11T21:02:42.412Z,100176.38
2023-04-11T21:05:11.837Z,100178.41
2023-04-11T21:07:40.319Z,100171.31
2023-04-11T21:10:09.051Z,100165.69
2023-04-11T21:12:37.535Z,100157.19
2023-04-11T21:15:08.496Z,100158.94
2023-04-11T21:17:39.391Z,100156.91
2023-04-11T21:20:17.429Z,100157.09
2023-04-11T21:22:46.369Z,100144.25
2023-04-11T21:25:15.647Z,100140.31
2023-04-11T21:27:43.975Z,100135.16
2023-04-11T21:30:14.443Z,100131.53
2023-04-11T21:32:46.827Z,100126.97
2023-04-11T21:35:29.275Z,100126.38
2023-04-11T21:37:57.687Z,100120.41
2023-04-11T21:40:26.018Z,100123.22
2023-04-11T21:42:55.406Z,100116.75
2023-04-11T21:45:25.007Z,100119.56
2023-04-11T21:47:53.196Z,100110.38
2023-04-11T21:50:21.547Z,100109.25
2023-04-11T21:52:49.767Z,100105.13
2023-04-11T21:55:17.888Z,100099.97
2023-04-11T21:57:46.135Z,100098.34
2023-04-11T22:00:14.468Z,100097.94
2023-04-11T22:02:50.094Z,100089.56
2023-04-11T22:05:19.218Z,100101.28
2023-04-11T22:07:47.720Z,100088.66
2023-04-11T22:10:22.342Z,100083.81
2023-04-11T22:12:53.539Z,100083.81
2023-04-11T22:15:21.783Z,100082.69
2023-04-11T22:17:54.257Z,100075.00
2023-04-11T22:20:22.904Z,100072.28
2023-04-11T22:22:51.071Z,100074.56
2023-04-11T22:25:22.081Z,100061.97
2023-04-11T22:27:54.046Z,100061.16
2023-04-11T22:30:23.653Z,100056.09
2023-04-11T22:32:54.199Z,100057.09
2023-04-11T22:35:23.195Z,100062.75
2023-04-11T22:37:51.618Z,100045.69
2023-04-11T22:40:22.291Z,100040.53
2023-04-11T22:42:51.781Z,100029.81
2023-04-11T22:45:20.596Z,100024.94
2023-04-11T22:47:53.966Z,100019.28
2023-04-11T22:50:24.194Z,100006.16
2023-04-11T22:52:54.552Z,100008.06
2023-04-11T22:55:25.114Z,99998.47
2023-04-11T22:57:53.260Z,99990.56
2023-04-11T23:00:21.916Z,99988.16
2023-04-11T23:02:51.026Z,99989.66
2023-04-11T23:05:20.681Z,99990.47
2023-04-11T23:07:51.035Z,99988.06
2023-04-11T23:10:19.361Z,99987.75
2023-04-11T23:12:49.006Z,99981.47
2023-04-11T23:15:17.292Z,99964.19
2023-04-11T23:17:45.527Z,99969.13
2023-04-11T23:20:14.291Z,99951.84
2023-04-11T23:22:43.736Z,99958.47
2023-04-11T23:25:15.503Z,99960.03
2023-04-11T23:27:44.345Z,99956.25
2023-04-11T23:30:15.014Z,99948.66
2023-04-11T23:32:43.383Z,99930.66
2023-04-11T23:35:11.688Z,99917.25
2023-04-11T23:37:40.917Z,99910.06
2023-04-11T23:40:13.690Z,99906.69
2023-04-11T23:42:43.459Z,99904.34
2023-04-11T23:45:12.637Z,99905.78
2023-04-11T23:47:41.147Z,99893.44
2023-04-11T23:50:09.890Z,99885.34
2023-04-11T23:52:39.724Z,99879.09
2023-04-11T23:55:08.776Z,99876.06
2023-04-11T23:57:37.074Z,99863.16
